Time;durP1;ratioP1;P1;durP2;ratioP2;P2;SDS_P1;SDS_P2;PMS_P1;PMS_P2;Temp;Humidity;BMP_temperature;BMP_pressure;BME280_temperature;BME280_humidity;BME280_pressure;Samples;Min_cycle;Max_cycle;Signal;HPM_P1;HPM_P2
2021/04/06 00:00:55;;;;;;;2.25;1.60;;;0.00;99.90;;;;;;5053880;28;20557;-65
2021/04/06 00:03:27;;;;;;;1.95;1.15;;;0.00;99.90;;;;;;5053955;28;20262;-65
2021/04/06 00:06:00;;;;;;;4.90;1.15;;;0.10;99.90;;;;;;5053675;28;20181;-65
2021/04/06 00:08:28;;;;;;;4.00;1.40;;;0.00;99.90;;;;;;5053639;28;20188;-65
2021/04/06 00:10:58;;;;;;;1.30;1.20;;;0.10;99.90;;;;;;5053591;28;20195;-65
2021/04/06 00:13:29;;;;;;;2.50;2.00;;;0.10;99.90;;;;;;5053665;28;20208;-65
2021/04/06 00:15:56;;;;;;;6.05;2.05;;;0.10;99.90;;;;;;5035527;28;20215;-65
2021/04/06 00:18:24;;;;;;;2.03;1.08;;;0.10;99.90;;;;;;5053782;28;20648;-67
2021/04/06 00:20:54;;;;;;;3.88;1.42;;;0.10;99.90;;;;;;5036182;28;20197;-65
2021/04/06 00:23:22;;;;;;;1.98;1.05;;;0.10;99.90;;;;;;5054113;28;20215;-64
2021/04/06 00:25:54;;;;;;;3.78;1.23;;;0.10;99.90;;;;;;5053643;28;20534;-64
2021/04/06 00:28:27;;;;;;;4.20;1.48;;;0.10;99.90;;;;;;5054279;28;20184;-64
2021/04/06 00:30:57;;;;;;;3.22;1.48;;;0.20;99.90;;;;;;5053653;28;20184;-65
2021/04/06 00:33:35;;;;;;;3.10;1.80;;;0.10;99.90;;;;;;5053390;28;20654;-64
2021/04/06 00:36:03;;;;;;;4.25;1.30;;;0.20;99.90;;;;;;5053796;28;20179;-64
2021/04/06 00:38:41;;;;;;;3.25;1.45;;;0.20;99.90;;;;;;5036716;28;20567;-65
2021/04/06 00:41:12;;;;;;;5.63;1.55;;;0.10;99.90;;;;;;5054386;28;20561;-66
2021/04/06 00:43:41;;;;;;;5.65;1.50;;;0.10;99.90;;;;;;5053566;28;20201;-66
2021/04/06 00:46:20;;;;;;;6.57;1.38;;;0.10;99.90;;;;;;5053385;28;20193;-66
2021/04/06 00:48:48;;;;;;;2.13;1.25;;;0.00;99.90;;;;;;5053258;28;20203;-65
2021/04/06 00:51:18;;;;;;;3.58;1.40;;;0.00;99.90;;;;;;5053375;28;20193;-65
2021/04/06 00:54:06;;;;;;;4.13;1.30;;;-0.10;99.90;;;;;;5054017;28;20216;-65
2021/04/06 00:56:37;;;;;;;6.43;1.85;;;-0.10;99.90;;;;;;5053590;28;20242;-66
2021/04/06 00:59:13;;;;;;;2.30;1.30;;;-0.10;99.90;;;;;;5053407;28;20219;-66
2021/04/06 01:01:45;;;;;;;3.30;1.20;;;-0.10;99.90;;;;;;5052683;28;20204;-65
2021/04/06 01:04:18;;;;;;;6.68;2.20;;;-0.10;99.90;;;;;;5053132;28;20204;-66
2021/04/06 01:07:08;;;;;;;8.43;3.00;;;-0.20;99.90;;;;;;5038388;28;20686;-64
2021/04/06 01:09:53;;;;;;;3.00;1.80;;;-0.20;99.90;;;;;;5057325;28;20205;-66
2021/04/06 01:12:25;;;;;;;2.53;2.33;;;-0.20;99.90;;;;;;5057031;28;20168;-64
2021/04/06 01:14:53;;;;;;;3.38;1.90;;;-0.20;99.90;;;;;;5056349;28;20209;-65
2021/04/06 01:17:27;;;;;;;5.15;2.78;;;-0.20;99.90;;;;;;5040026;28;20196;-63
2021/04/06 01:19:58;;;;;;;2.92;1.38;;;-0.20;99.90;;;;;;5039066;28;20211;-65
2021/04/06 01:22:28;;;;;;;5.75;1.75;;;-0.30;99.90;;;;;;5056959;28;20193;-66
2021/04/06 01:24:55;;;;;;;2.58;1.60;;;-0.40;99.90;;;;;;5056904;28;20208;-66
2021/04/06 01:27:21;;;;;;;3.72;2.20;;;-0.30;99.90;;;;;;5056702;28;20194;-66
2021/04/06 01:29:56;;;;;;;4.82;1.38;;;-0.30;99.90;;;;;;5056829;28;20204;-66
2021/04/06 01:32:28;;;;;;;1.45;1.25;;;-0.40;99.90;;;;;;5039693;28;20185;-65
2021/04/06 01:34:56;;;;;;;3.65;1.65;;;-0.40;99.90;;;;;;5057151;28;20286;-65
2021/04/06 01:37:28;;;;;;;4.72;1.63;;;-0.40;99.90;;;;;;5056613;28;20563;-66
2021/04/06 01:39:57;;;;;;;3.05;1.80;;;-0.40;99.90;;;;;;5055758;28;20695;-66
2021/04/06 01:42:31;;;;;;;5.22;2.22;;;-0.50;99.90;;;;;;5056425;28;20216;-65
2021/04/06 01:45:03;;;;;;;4.28;1.75;;;-0.50;99.90;;;;;;5056565;28;20204;-65
2021/04/06 01:47:30;;;;;;;6.28;2.40;;;-0.50;99.90;;;;;;5056595;28;20173;-66
2021/04/06 01:49:57;;;;;;;4.97;2.22;;;-0.50;99.90;;;;;;5055697;28;20268;-65
2021/04/06 01:52:27;;;;;;;4.07;1.95;;;-0.60;99.90;;;;;;5056266;28;20193;-65
2021/04/06 01:54:58;;;;;;;7.22;4.50;;;-0.60;99.90;;;;;;5056183;28;20283;-65
2021/04/06 01:57:37;;;;;;;7.05;2.25;;;-0.50;99.90;;;;;;5056505;28;20177;-65
2021/04/06 02:01:06;;;;;;;6.88;3.17;;;-0.60;99.90;;;;;;5056114;28;20208;-65
2021/04/06 02:03:11;;;;;;;9.13;1.98;;;-0.60;99.90;;;;;;5045170;28;20205;-65
2021/04/06 02:05:38;;;;;;;6.57;2.22;;;-0.60;99.90;;;;;;5040335;28;20233;-65
2021/04/06 02:08:10;;;;;;;10.07;2.20;;;-0.60;99.90;;;;;;5055294;28;20212;-65
2021/04/06 02:10:37;;;;;;;5.00;1.70;;;-0.60;99.90;;;;;;5039231;28;20191;-64
2021/04/06 02:13:11;;;;;;;3.30;2.63;;;-0.60;99.90;;;;;;5056283;28;20222;-65
2021/04/06 02:15:53;;;;;;;4.20;1.92;;;-0.60;99.90;;;;;;5055872;28;20487;-65
2021/04/06 02:18:24;;;;;;;6.57;2.17;;;-0.60;99.90;;;;;;5054677;28;20173;-64
2021/04/06 02:20:53;;;;;;;3.85;2.25;;;-0.60;99.90;;;;;;5055381;28;20200;-64
2021/04/06 02:23:20;;;;;;;6.07;2.40;;;-0.60;99.90;;;;;;5055776;28;20192;-66
2021/04/06 02:25:55;;;;;;;5.63;2.10;;;-0.60;99.90;;;;;;5055583;28;20189;-66
2021/04/06 02:28:24;;;;;;;7.70;2.92;;;-0.60;99.90;;;;;;5055769;28;20181;-65
2021/04/06 02:30:56;;;;;;;8.30;2.45;;;-0.60;99.90;;;;;;5055631;28;20648;-66
2021/04/06 02:33:28;;;;;;;4.75;1.90;;;-0.60;99.90;;;;;;5021001;28;20204;-65
2021/04/06 02:36:02;;;;;;;7.50;3.05;;;-0.70;99.90;;;;;;5055414;28;20181;-65
2021/04/06 02:38:33;;;;;;;6.80;2.47;;;-0.70;99.90;;;;;;5055420;28;20189;-66
2021/04/06 02:41:08;;;;;;;11.68;2.70;;;-0.80;99.90;;;;;;5054756;28;20232;-65
2021/04/06 02:43:52;;;;;;;4.55;2.45;;;-0.70;99.90;;;;;;5055084;28;20180;-64
2021/04/06 02:46:27;;;;;;;9.20;3.05;;;-0.70;99.90;;;;;;5055382;28;20173;-66
2021/04/06 02:48:55;;;;;;;13.18;2.17;;;-0.70;99.90;;;;;;5055213;28;20581;-65
2021/04/06 02:51:24;;;;;;;4.40;2.60;;;-0.70;99.90;;;;;;5054823;28;20204;-65
2021/04/06 02:53:53;;;;;;;3.13;2.05;;;-0.70;99.90;;;;;;5055319;28;20181;-65
2021/04/06 02:56:36;;;;;;;2.95;2.30;;;-0.70;99.90;;;;;;5055227;28;20242;-65
2021/04/06 02:59:19;;;;;;;4.00;1.80;;;-0.70;99.90;;;;;;5054910;28;20209;-65
2021/04/06 03:01:50;;;;;;;9.23;2.60;;;-0.60;99.90;;;;;;5053956;28;20222;-65
2021/04/06 03:04:26;;;;;;;5.13;2.28;;;-0.60;99.90;;;;;;5054339;28;20208;-65
2021/04/06 03:06:58;;;;;;;6.15;2.45;;;-0.60;99.90;;;;;;5037379;28;20613;-65
2021/04/06 03:09:26;;;;;;;5.05;3.00;;;-0.70;99.90;;;;;;5054289;28;20679;-65
2021/04/06 03:11:55;;;;;;;5.93;2.90;;;-0.70;99.90;;;;;;5053975;28;20307;-65
2021/04/06 03:14:23;;;;;;;8.07;2.95;;;-0.70;99.90;;;;;;5054145;28;20242;-65
2021/04/06 03:16:51;;;;;;;5.88;3.05;;;-0.70;99.90;;;;;;5054650;28;20196;-65
2021/04/06 03:19:27;;;;;;;14.20;4.03;;;-0.80;99.90;;;;;;5054061;28;20666;-65
2021/04/06 03:21:55;;;;;;;9.45;4.00;;;-0.80;99.90;;;;;;5054594;28;20222;-65
2021/04/06 03:24:22;;;;;;;3.70;2.50;;;-0.80;99.90;;;;;;5054411;28;20220;-65
2021/04/06 03:26:50;;;;;;;4.20;2.92;;;-0.90;99.90;;;;;;5054696;28;20205;-65
2021/04/06 03:29:17;;;;;;;4.05;3.00;;;-0.90;99.90;;;;;;5054069;28;20258;-65
2021/04/06 03:31:47;;;;;;;5.88;2.70;;;-0.90;99.90;;;;;;5054446;28;20173;-65
2021/04/06 03:34:13;;;;;;;5.97;2.10;;;-0.90;99.90;;;;;;5054304;28;20216;-65
2021/04/06 03:36:41;;;;;;;3.60;2.85;;;-0.90;99.90;;;;;;5054320;28;20205;-65
2021/04/06 03:39:09;;;;;;;6.90;2.60;;;-0.80;99.90;;;;;;5054349;28;20199;-65
2021/04/06 03:41:36;;;;;;;2.85;2.65;;;-0.80;99.90;;;;;;5053846;28;20267;-65
2021/04/06 03:44:10;;;;;;;4.50;2.15;;;-0.80;99.90;;;;;;5054144;28;20225;-64
2021/04/06 03:46:38;;;;;;;4.78;2.50;;;-0.80;99.90;;;;;;5054229;28;20545;-65
2021/04/06 03:49:23;;;;;;;3.42;1.95;;;-0.90;99.90;;;;;;5053973;28;20169;-63
2021/04/06 03:51:57;;;;;;;4.18;1.63;;;-0.90;99.90;;;;;;5053377;28;20213;-64
2021/04/06 03:54:45;;;;;;;6.97;2.50;;;-0.90;99.90;;;;;;5053960;28;20207;-64
2021/04/06 04:00:08;;;;;;;7.22;2.65;;;-0.90;99.90;;;;;;5053815;28;20181;-64
2021/04/06 04:02:38;;;;;;;7.43;2.45;;;-0.90;99.90;;;;;;5054233;28;20193;-64
2021/04/06 04:05:05;;;;;;;2.08;1.83;;;-0.90;99.90;;;;;;5054032;28;20216;-64
2021/04/06 04:07:36;;;;;;;4.63;2.15;;;-0.90;99.90;;;;;;5053942;28;20200;-64
2021/04/06 04:10:09;;;;;;;9.45;2.90;;;-0.90;99.90;;;;;;5053651;28;20204;-64
2021/04/06 04:12:36;;;;;;;5.13;2.50;;;-0.90;99.90;;;;;;5036050;28;20200;-65
2021/04/06 04:15:03;;;;;;;8.90;2.72;;;-1.00;99.90;;;;;;5035540;28;20576;-64
2021/04/06 04:17:29;;;;;;;7.18;3.00;;;-1.00;99.90;;;;;;5053742;28;20188;-64
2021/04/06 04:19:56;;;;;;;7.65;2.97;;;-1.00;99.90;;;;;;5053592;28;20196;-64
2021/04/06 04:22:22;;;;;;;9.13;3.58;;;-1.00;99.90;;;;;;5053972;28;20219;-64
2021/04/06 04:24:48;;;;;;;8.40;3.03;;;-1.00;99.90;;;;;;5052934;28;20278;-64
2021/04/06 04:27:15;;;;;;;12.02;3.13;;;-1.00;99.90;;;;;;5053742;28;20193;-64
2021/04/06 04:29:43;;;;;;;12.20;3.13;;;-1.00;99.90;;;;;;5053359;28;20559;-64
2021/04/06 04:32:13;;;;;;;7.57;3.60;;;-1.10;99.90;;;;;;5053196;28;20200;-63
2021/04/06 04:34:40;;;;;;;9.82;3.75;;;-1.10;99.90;;;;;;5053674;28;20188;-64
2021/04/06 04:37:07;;;;;;;6.20;3.00;;;-1.10;99.90;;;;;;5035840;28;20192;-64
2021/04/06 04:39:34;;;;;;;17.98;4.03;;;-1.10;99.90;;;;;;5034844;28;20200;-64
2021/04/06 04:42:03;;;;;;;6.28;3.40;;;-1.10;99.90;;;;;;5057369;28;20230;-64
2021/04/06 04:44:30;;;;;;;10.35;4.18;;;-1.10;99.90;;;;;;5057446;28;20229;-64
2021/04/06 04:46:56;;;;;;;10.73;4.20;;;-1.10;99.90;;;;;;5057400;28;20666;-64
2021/04/06 04:49:23;;;;;;;5.53;3.38;;;-1.10;99.90;;;;;;5057458;28;20199;-64
2021/04/06 04:51:49;;;;;;;7.25;4.80;;;-1.10;99.90;;;;;;5057326;28;20206;-64
2021/04/06 04:54:18;;;;;;;11.15;4.57;;;-1.10;99.90;;;;;;5057296;28;20197;-65
2021/04/06 04:56:44;;;;;;;13.48;4.10;;;-1.10;99.90;;;;;;5057183;28;20600;-64
2021/04/06 04:59:10;;;;;;;13.45;3.80;;;-1.10;99.90;;;;;;5056613;28;20212;-64
2021/04/06 05:01:42;;;;;;;15.82;4.25;;;-1.10;99.90;;;;;;5040393;28;20197;-65
2021/04/06 05:04:08;;;;;;;12.43;4.40;;;-1.10;99.90;;;;;;5057322;28;20200;-64
2021/04/06 05:06:35;;;;;;;10.50;4.18;;;-1.20;99.90;;;;;;5056973;28;20261;-65
2021/04/06 05:09:03;;;;;;;13.18;3.60;;;-1.20;99.90;;;;;;5057829;28;20189;-65
2021/04/06 05:11:30;;;;;;;12.10;4.32;;;-1.10;99.90;;;;;;5038975;28;20208;-65
2021/04/06 05:13:59;;;;;;;7.88;3.60;;;-1.10;99.90;;;;;;5057363;28;20554;-65
2021/04/06 05:16:28;;;;;;;6.35;4.60;;;-1.10;99.90;;;;;;5057063;28;20201;-65
2021/04/06 05:18:58;;;;;;;7.70;4.18;;;-1.10;99.90;;;;;;5057030;28;20288;-65
2021/04/06 05:21:28;;;;;;;10.65;4.40;;;-1.10;99.90;;;;;;5056915;28;20188;-65
2021/04/06 05:23:54;;;;;;;13.40;3.95;;;-1.10;99.90;;;;;;5056941;28;20200;-65
2021/04/06 05:26:21;;;;;;;9.52;4.00;;;-1.00;99.90;;;;;;5056539;28;20232;-65
2021/04/06 05:28:52;;;;;;;12.50;3.10;;;-1.00;99.90;;;;;;5056892;28;20161;-65
2021/04/06 05:31:18;;;;;;;14.10;4.93;;;-1.00;99.90;;;;;;5056964;28;20567;-65
2021/04/06 05:33:46;;;;;;;11.38;3.63;;;-1.00;99.90;;;;;;5056774;28;20650;-65
2021/04/06 05:36:12;;;;;;;7.47;3.40;;;-0.90;99.90;;;;;;5056729;28;20212;-66
2021/04/06 05:38:38;;;;;;;11.55;3.92;;;-0.90;99.90;;;;;;5056423;28;20193;-65
2021/04/06 05:41:05;;;;;;;8.18;2.95;;;-0.90;99.90;;;;;;5056238;28;20332;-65
2021/04/06 05:43:33;;;;;;;7.13;3.13;;;-0.80;99.90;;;;;;5056607;28;20211;-65
2021/04/06 05:46:00;;;;;;;6.85;2.90;;;-0.80;99.90;;;;;;5056775;28;20579;-66
2021/04/06 05:48:32;;;;;;;7.47;3.53;;;-0.80;99.90;;;;;;5057260;28;20193;-65
2021/04/06 05:51:01;;;;;;;6.72;3.35;;;-0.80;99.90;;;;;;5057093;28;20177;-65
2021/04/06 05:53:28;;;;;;;5.65;2.60;;;-0.80;99.90;;;;;;5056674;28;20196;-66
2021/04/06 05:55:59;;;;;;;7.68;2.58;;;-0.70;99.90;;;;;;5056597;28;20197;-64
2021/04/06 05:58:29;;;;;;;9.57;3.10;;;-0.60;99.90;;;;;;5056748;28;20176;-65
2021/04/06 06:00:59;;;;;;;9.45;2.97;;;-0.50;99.90;;;;;;5038724;28;20201;-65
2021/04/06 06:03:27;;;;;;;9.82;2.95;;;-0.30;99.90;;;;;;5056754;28;20209;-65
2021/04/06 06:05:55;;;;;;;8.68;3.22;;;-0.10;99.90;;;;;;5056612;28;20241;-65
2021/04/06 06:08:24;;;;;;;6.90;2.67;;;0.00;99.90;;;;;;5056095;28;20196;-65
2021/04/06 06:11:03;;;;;;;8.85;2.80;;;0.20;99.90;;;;;;5039072;28;20200;-66
2021/04/06 06:13:30;;;;;;;12.40;3.65;;;0.30;99.90;;;;;;5038722;28;20204;-65
2021/04/06 06:16:16;;;;;;;7.15;2.80;;;0.20;99.90;;;;;;5038273;28;20291;-66
2021/04/06 06:19:04;;;;;;;10.20;3.10;;;0.30;99.90;;;;;;5056695;28;20180;-64
2021/04/06 06:21:53;;;;;;;7.70;3.20;;;0.20;99.90;;;;;;5055481;28;21234;-67
2021/04/06 06:24:29;;;;;;;4.43;2.70;;;0.40;99.90;;;;;;5056949;28;20563;-66
2021/04/06 06:26:56;;;;;;;5.95;1.98;;;0.30;99.90;;;;;;5056094;28;20182;-66
2021/04/06 06:29:27;;;;;;;6.15;3.05;;;0.30;99.90;;;;;;5056850;28;20204;-65
2021/04/06 06:31:58;;;;;;;8.30;3.90;;;0.40;99.90;;;;;;5038086;28;20220;-65
2021/04/06 06:34:38;;;;;;;5.43;2.72;;;0.30;99.90;;;;;;5056234;28;20290;-66
2021/04/06 06:37:15;;;;;;;5.25;3.30;;;0.50;99.90;;;;;;5056210;28;20193;-66
2021/04/06 06:39:57;;;;;;;7.07;2.70;;;0.60;99.90;;;;;;5055524;28;20857;-65
2021/04/06 06:42:28;;;;;;;6.18;3.28;;;0.50;99.90;;;;;;5055786;28;20267;-66
2021/04/06 06:44:56;;;;;;;7.05;4.00;;;0.50;99.90;;;;;;5056076;28;20321;-66
2021/04/06 06:47:28;;;;;;;10.93;2.80;;;0.60;99.90;;;;;;5055627;28;20220;-66
2021/04/06 06:50:10;;;;;;;6.35;2.88;;;0.60;99.90;;;;;;5055608;28;20205;-64
2021/04/06 06:52:37;;;;;;;12.90;2.70;;;0.50;99.90;;;;;;5055562;28;20173;-65
2021/04/06 06:55:23;;;;;;;7.88;3.28;;;0.60;99.90;;;;;;5056231;28;20200;-65
2021/04/06 06:58:00;;;;;;;7.72;3.15;;;0.60;99.90;;;;;;5033627;28;20233;-66
2021/04/06 07:00:26;;;;;;;10.77;3.17;;;0.60;99.90;;;;;;5050357;28;20188;-64
2021/04/06 07:02:54;;;;;;;7.57;3.22;;;0.60;99.90;;;;;;5020397;28;20205;-66
2021/04/06 07:05:23;;;;;;;12.63;2.50;;;0.60;99.90;;;;;;5054715;28;20243;-66
2021/04/06 07:07:50;;;;;;;18.70;2.72;;;0.50;99.90;;;;;;5054485;28;20188;-67
2021/04/06 07:10:23;;;;;;;4.28;2.45;;;0.40;99.90;;;;;;5054532;28;20227;-67
2021/04/06 07:13:06;;;;;;;9.73;2.92;;;0.60;99.90;;;;;;5054642;28;20250;-66
2021/04/06 07:15:39;;;;;;;13.07;3.25;;;0.70;99.90;;;;;;5054746;28;20238;-66
2021/04/06 07:18:08;;;;;;;4.13;2.30;;;0.80;99.90;;;;;;5055257;28;20671;-65
2021/04/06 07:20:39;;;;;;;4.88;2.47;;;0.70;99.90;;;;;;5038332;28;20242;-65
2021/04/06 07:23:08;;;;;;;6.97;3.20;;;0.70;99.90;;;;;;5053846;28;20201;-65
2021/04/06 07:25:35;;;;;;;9.90;3.15;;;0.80;99.90;;;;;;5054567;28;20236;-66
2021/04/06 07:28:03;;;;;;;5.00;2.55;;;0.80;99.90;;;;;;5054855;28;20202;-65
2021/04/06 07:30:30;;;;;;;9.80;4.10;;;0.70;99.90;;;;;;5055013;28;20200;-65
2021/04/06 07:32:58;;;;;;;11.95;3.42;;;0.70;99.90;;;;;;5036808;28;20247;-63
2021/04/06 07:35:27;;;;;;;9.20;3.25;;;0.70;99.90;;;;;;5054846;28;20204;-66
2021/04/06 07:37:54;;;;;;;10.38;3.13;;;0.60;99.90;;;;;;5054609;28;20192;-65
2021/04/06 07:40:25;;;;;;;10.50;3.33;;;0.80;99.90;;;;;;5054404;28;20256;-65
2021/04/06 07:42:52;;;;;;;6.90;3.03;;;1.00;99.90;;;;;;5036836;28;20189;-66
2021/04/06 07:45:21;;;;;;;6.68;2.88;;;1.10;99.90;;;;;;5053688;28;20566;-66
2021/04/06 07:47:48;;;;;;;13.30;3.90;;;1.10;99.90;;;;;;5054206;28;20639;-66
2021/04/06 07:50:43;;;;;;;8.65;3.45;;;1.20;99.90;;;;;;5054960;28;20206;-67
2021/04/06 07:53:27;;;;;;;7.05;4.10;;;1.20;99.90;;;;;;5054289;28;20650;-66
2021/04/06 07:55:56;;;;;;;8.90;2.92;;;1.20;99.90;;;;;;5053992;28;20177;-66
2021/04/06 07:58:45;;;;;;;7.10;2.63;;;1.20;99.90;;;;;;5053529;28;20215;-65
2021/04/06 08:01:29;;;;;;;6.72;3.20;;;1.40;99.90;;;;;;5037042;28;20200;-65
2021/04/06 08:04:05;;;;;;;12.73;4.72;;;1.60;99.90;;;;;;5053522;28;20208;-65
2021/04/06 08:06:44;;;;;;;5.47;3.15;;;1.50;99.90;;;;;;5053833;28;20209;-65
2021/04/06 08:09:28;;;;;;;7.68;3.42;;;1.60;99.90;;;;;;5052956;28;20200;-65
2021/04/06 08:12:08;;;;;;;8.18;4.20;;;1.50;99.90;;;;;;5053308;28;20204;-66
2021/04/06 08:14:41;;;;;;;9.13;3.13;;;1.50;99.90;;;;;;5053548;28;20200;-66
2021/04/06 08:17:26;;;;;;;10.60;3.53;;;1.60;99.90;;;;;;5053890;28;20173;-66
2021/04/06 08:19:53;;;;;;;8.85;2.83;;;1.60;99.90;;;;;;5053850;28;20192;-65
2021/04/06 08:22:21;;;;;;;7.32;3.80;;;1.60;99.90;;;;;;5053492;28;20192;-66
2021/04/06 08:25:13;;;;;;;8.18;3.20;;;1.70;99.90;;;;;;5043476;28;20552;-66
2021/04/06 08:27:40;;;;;;;10.57;3.80;;;1.80;99.90;;;;;;5051747;28;20663;-66
2021/04/06 08:30:15;;;;;;;7.32;2.90;;;1.70;99.90;;;;;;5053533;28;20193;-67
2021/04/06 08:33:01;;;;;;;7.25;2.90;;;1.70;99.90;;;;;;5053546;28;20195;-65
2021/04/06 08:35:48;;;;;;;6.55;3.42;;;1.70;99.90;;;;;;5053835;28;20213;-65
2021/04/06 08:38:22;;;;;;;12.45;3.72;;;1.70;99.90;;;;;;5036711;28;20200;-65
2021/04/06 08:41:01;;;;;;;5.97;3.50;;;1.70;99.90;;;;;;5053081;28;20316;-65
2021/04/06 08:43:50;;;;;;;8.48;3.13;;;1.70;99.90;;;;;;5053384;28;20640;-66
2021/04/06 08:46:40;;;;;;;10.00;3.78;;;1.80;99.90;;;;;;5053666;28;20581;-65
2021/04/06 08:49:22;;;;;;;5.80;3.58;;;1.90;99.90;;;;;;5053490;28;20183;-66
2021/04/06 08:52:00;;;;;;;7.20;2.58;;;1.90;99.90;;;;;;5035674;28;20212;-65
2021/04/06 08:54:35;;;;;;;5.57;3.00;;;1.90;99.90;;;;;;5053744;28;20177;-65
2021/04/06 08:57:09;;;;;;;10.80;3.05;;;2.00;99.90;;;;;;5053259;28;20330;-65
2021/04/06 08:59:42;;;;;;;6.80;3.40;;;2.20;99.90;;;;;;5034967;28;20670;-66
2021/04/06 09:02:15;;;;;;;10.18;3.15;;;2.20;99.90;;;;;;5019536;28;20209;-66
2021/04/06 09:04:47;;;;;;;5.32;3.10;;;2.20;99.90;;;;;;5035106;28;20205;-66
2021/04/06 09:07:28;;;;;;;6.38;2.38;;;2.20;99.90;;;;;;5053785;28;20276;-65
2021/04/06 09:10:06;;;;;;;8.00;3.40;;;2.20;99.90;;;;;;5052829;28;20229;-65
2021/04/06 09:12:35;;;;;;;3.75;2.75;;;2.50;99.90;;;;;;5052700;28;20227;-66
2021/04/06 09:15:03;;;;;;;6.18;3.17;;;2.60;99.90;;;;;;5052996;28;20556;-66
2021/04/06 09:17:36;;;;;;;6.00;3.05;;;2.50;99.90;;;;;;5053457;28;20193;-66
2021/04/06 09:20:12;;;;;;;9.55;2.40;;;2.60;99.90;;;;;;5035216;28;20200;-66
2021/04/06 09:22:42;;;;;;;7.95;3.33;;;2.60;99.90;;;;;;5035720;28;20185;-66
2021/04/06 09:25:15;;;;;;;10.30;3.58;;;2.60;99.90;;;;;;5052608;28;20228;-66
2021/04/06 09:28:08;;;;;;;5.53;2.90;;;2.70;99.90;;;;;;5055740;28;20255;-64
2021/04/06 09:30:44;;;;;;;4.93;2.85;;;2.80;99.90;;;;;;5053025;28;20216;-64
2021/04/06 09:33:17;;;;;;;6.40;3.20;;;2.90;99.90;;;;;;5038745;28;20216;-65
2021/04/06 09:35:49;;;;;;;8.75;3.40;;;2.70;99.90;;;;;;5056744;28;20550;-65
2021/04/06 09:38:19;;;;;;;7.72;3.17;;;2.80;99.90;;;;;;5056471;28;20208;-65
2021/04/06 09:40:48;;;;;;;7.50;2.90;;;2.90;99.90;;;;;;5056070;28;20261;-65
2021/04/06 09:43:15;;;;;;;8.45;3.53;;;3.10;99.90;;;;;;5056310;28;20286;-65
2021/04/06 09:45:42;;;;;;;9.90;3.42;;;3.20;99.90;;;;;;5055888;28;20251;-65
2021/04/06 09:48:15;;;;;;;5.95;2.65;;;3.30;99.90;;;;;;5055935;28;20227;-66
2021/04/06 09:51:00;;;;;;;4.95;3.13;;;3.40;99.90;;;;;;5034262;28;20201;-65
2021/04/06 09:53:26;;;;;;;8.10;2.72;;;3.30;99.90;;;;;;5049823;28;20204;-65
2021/04/06 09:55:55;;;;;;;2.97;2.13;;;3.40;99.90;;;;;;5055796;28;20212;-65
2021/04/06 09:58:22;;;;;;;4.03;3.20;;;3.50;99.90;;;;;;5055492;28;20294;-65
2021/04/06 10:00:49;;;;;;;7.38;3.38;;;3.50;99.90;;;;;;5055718;28;20228;-65
2021/04/06 10:03:25;;;;;;;10.77;2.50;;;3.50;99.90;;;;;;5055124;28;20204;-65
2021/04/06 10:06:04;;;;;;;3.67;2.65;;;3.60;99.90;;;;;;5055733;28;20679;-65
2021/04/06 10:08:32;;;;;;;12.02;3.58;;;3.50;99.90;;;;;;5054648;28;20561;-65
2021/04/06 10:10:59;;;;;;;5.47;2.05;;;3.60;99.90;;;;;;5054961;28;20197;-65
2021/04/06 10:13:26;;;;;;;8.70;3.38;;;3.60;99.90;;;;;;5055251;28;20677;-65
2021/04/06 10:16:16;;;;;;;7.97;2.75;;;3.50;99.90;;;;;;5055394;28;20706;-64
2021/04/06 10:18:48;;;;;;;7.57;2.75;;;3.40;99.90;;;;;;5055337;28;20662;-64
2021/04/06 10:21:18;;;;;;;5.82;3.08;;;3.60;99.90;;;;;;5055552;28;20291;-65
2021/04/06 10:23:46;;;;;;;19.48;3.70;;;3.90;99.90;;;;;;5037708;28;20200;-64
2021/04/06 10:26:20;;;;;;;4.22;2.65;;;4.30;99.90;;;;;;5055532;28;20254;-65
2021/04/06 10:28:46;;;;;;;3.53;2.35;;;4.50;99.90;;;;;;5055023;28;20557;-65
2021/04/06 10:31:13;;;;;;;5.18;2.40;;;4.50;99.90;;;;;;5055067;28;20196;-64
2021/04/06 10:33:40;;;;;;;5.68;2.45;;;4.50;99.90;;;;;;5055335;28;20271;-63
2021/04/06 10:36:18;;;;;;;10.35;2.88;;;4.50;99.90;;;;;;5053693;28;20699;-63
2021/04/06 10:38:45;;;;;;;8.70;2.53;;;4.40;99.90;;;;;;5042000;28;20261;-64
2021/04/06 10:41:24;;;;;;;3.65;2.60;;;4.20;99.90;;;;;;5054496;28;20236;-64
2021/04/06 10:43:55;;;;;;;4.72;2.75;;;4.40;99.90;;;;;;5054331;28;20200;-64
2021/04/06 10:46:25;;;;;;;6.13;2.90;;;4.40;99.90;;;;;;5054374;28;20597;-65
2021/04/06 10:48:59;;;;;;;4.57;2.50;;;4.50;99.90;;;;;;5054784;28;20197;-65
2021/04/06 10:51:27;;;;;;;4.80;2.42;;;4.30;99.90;;;;;;5054430;28;20647;-65
2021/04/06 10:53:56;;;;;;;5.60;2.30;;;4.40;99.90;;;;;;5043437;28;20201;-65
2021/04/06 10:56:27;;;;;;;10.32;2.58;;;4.30;99.90;;;;;;5036188;28;20648;-65
2021/04/06 10:59:05;;;;;;;7.43;2.67;;;4.20;99.90;;;;;;5018731;28;20547;-65
2021/04/06 11:01:43;;;;;;;4.38;2.22;;;4.50;99.90;;;;;;5036302;28;20580;-66
2021/04/06 11:04:21;;;;;;;5.95;2.30;;;4.90;99.90;;;;;;5034797;28;20212;-66
2021/04/06 11:07:02;;;;;;;3.35;1.70;;;5.30;99.90;;;;;;5035301;28;20228;-66
2021/04/06 11:09:40;;;;;;;4.72;1.63;;;5.30;99.90;;;;;;5034905;28;20201;-66
2021/04/06 11:12:11;;;;;;;5.10;2.40;;;5.30;99.90;;;;;;5035424;28;20182;-67
2021/04/06 11:14:39;;;;;;;4.25;1.83;;;5.00;99.90;;;;;;5034454;28;20202;-66
2021/04/06 11:17:06;;;;;;;3.63;2.22;;;4.90;99.90;;;;;;5035002;28;20288;-66
2021/04/06 11:19:39;;;;;;;4.20;1.90;;;4.70;99.90;;;;;;5035453;28;20204;-68
2021/04/06 11:22:08;;;;;;;5.05;2.58;;;5.00;99.90;;;;;;5035021;28;20178;-66
2021/04/06 11:24:35;;;;;;;6.00;1.92;;;6.40;99.90;;;;;;5034265;28;20209;-66
2021/04/06 11:27:03;;;;;;;3.08;1.90;;;6.90;99.90;;;;;;5035103;28;20271;-66
2021/04/06 11:29:34;;;;;;;2.10;1.80;;;6.30;99.90;;;;;;5034565;28;20205;-65
2021/04/06 11:32:03;;;;;;;4.50;2.30;;;5.80;99.90;;;;;;5017127;28;20254;-65
2021/04/06 11:34:31;;;;;;;2.75;2.03;;;7.00;99.90;;;;;;5034854;28;20189;-66
2021/04/06 11:36:57;;;;;;;4.47;1.92;;;8.00;99.90;;;;;;5034912;28;20673;-66
2021/04/06 11:39:30;;;;;;;2.50;2.00;;;8.10;99.90;;;;;;5034537;28;20200;-65
2021/04/06 11:41:57;;;;;;;1.42;1.33;;;7.70;99.90;;;;;;5034426;28;20296;-65
2021/04/06 11:44:28;;;;;;;5.32;1.88;;;6.70;99.90;;;;;;5034841;28;20174;-66
2021/04/06 11:47:00;;;;;;;1.25;1.15;;;6.30;99.90;;;;;;5034827;28;20288;-66
2021/04/06 11:49:29;;;;;;;2.67;1.48;;;5.40;99.90;;;;;;5034709;28;20185;-67
2021/04/06 11:51:59;;;;;;;2.10;1.30;;;4.30;99.90;;;;;;5035157;28;20605;-67
2021/04/06 11:54:26;;;;;;;3.33;1.23;;;4.20;99.90;;;;;;5034571;28;20559;-66
2021/04/06 11:56:52;;;;;;;2.45;1.70;;;3.90;99.90;;;;;;5016262;28;20300;-65
2021/04/06 11:59:20;;;;;;;2.75;2.00;;;3.20;99.90;;;;;;5016831;28;20205;-64
2021/04/06 12:01:47;;;;;;;6.35;1.95;;;2.80;99.90;;;;;;5034391;28;20689;-64
2021/04/06 12:04:15;;;;;;;2.95;2.72;;;2.70;99.90;;;;;;5034397;28;20190;-66
2021/04/06 12:06:43;;;;;;;5.72;4.07;;;2.30;99.90;;;;;;5034003;28;20668;-65
2021/04/06 12:09:10;;;;;;;4.40;3.58;;;1.80;99.90;;;;;;5034342;28;20201;-67
2021/04/06 12:11:37;;;;;;;3.33;3.03;;;1.90;99.90;;;;;;5033496;28;20207;-67
2021/04/06 12:14:08;;;;;;;4.90;2.03;;;2.20;99.90;;;;;;5033781;28;20173;-65
2021/04/06 12:16:35;;;;;;;3.00;2.70;;;2.40;99.90;;;;;;5033967;28;20231;-65
2021/04/06 12:19:03;;;;;;;3.10;2.50;;;2.90;99.90;;;;;;5034080;28;20205;-65
2021/04/06 12:21:32;;;;;;;2.92;2.58;;;3.10;99.90;;;;;;5033890;28;20194;-66
2021/04/06 12:23:58;;;;;;;2.60;2.40;;;3.40;99.90;;;;;;5033455;28;20216;-67
2021/04/06 12:26:26;;;;;;;2.40;2.20;;;4.10;99.90;;;;;;5033750;28;20684;-66
2021/04/06 12:28:54;;;;;;;7.07;3.15;;;4.40;99.90;;;;;;5033921;28;20640;-65
2021/04/06 12:31:23;;;;;;;4.22;2.08;;;4.30;99.90;;;;;;5016245;28;20196;-66
2021/04/06 12:33:50;;;;;;;2.35;2.10;;;4.20;99.90;;;;;;5034060;28;20276;-66
2021/04/06 12:36:16;;;;;;;9.20;3.33;;;4.90;99.90;;;;;;5033826;28;20209;-65
2021/04/06 12:38:44;;;;;;;3.00;1.63;;;5.80;99.90;;;;;;5016126;28;20661;-67
2021/04/06 12:41:10;;;;;;;4.07;2.20;;;6.90;99.90;;;;;;5015485;28;20235;-65
2021/04/06 12:43:40;;;;;;;6.05;2.28;;;7.50;99.90;;;;;;5033713;28;20239;-66
2021/04/06 12:46:06;;;;;;;2.42;1.80;;;8.00;99.90;;;;;;5033631;28;20227;-66
2021/04/06 12:48:33;;;;;;;4.53;1.50;;;8.50;99.90;;;;;;5032943;28;20571;-66
2021/04/06 12:50:59;;;;;;;6.25;1.70;;;8.60;99.90;;;;;;4999497;28;20209;-66
2021/04/06 12:53:28;;;;;;;3.50;1.60;;;7.90;99.90;;;;;;5033552;28;20193;-65
2021/04/06 12:55:55;;;;;;;1.85;1.50;;;8.10;99.90;;;;;;4999230;28;20209;-66
2021/04/06 12:58:23;;;;;;;1.40;1.10;;;8.70;99.90;;;;;;5033865;28;20217;-66
2021/04/06 13:00:56;;;;;;;2.35;1.73;;;9.30;99.90;;;;;;5033577;28;20561;-67
2021/04/06 13:03:26;;;;;;;3.10;2.05;;;9.30;99.90;;;;;;5037690;28;20534;-66
2021/04/06 13:05:56;;;;;;;2.05;1.75;;;8.90;99.90;;;;;;5038427;28;20248;-66
2021/04/06 13:08:23;;;;;;;1.85;1.60;;;7.80;99.90;;;;;;5037714;28;20656;-65
2021/04/06 13:10:53;;;;;;;2.95;1.77;;;6.90;99.90;;;;;;5037265;28;20197;-66
2021/04/06 13:13:20;;;;;;;2.75;1.92;;;6.40;99.90;;;;;;5019200;28;20197;-64
2021/04/06 13:15:47;;;;;;;3.40;1.67;;;6.20;99.90;;;;;;5036537;28;20292;-65